createdAt,value
2022-10-30T00:00:28.237Z,12.33
2022-10-30T00:05:31.428Z,12.15
2022-10-30T00:10:35.814Z,13.68
2022-10-30T00:15:39.290Z,11.90
2022-10-30T00:20:42.479Z,12.77
2022-10-30T00:25:47.228Z,12.18
2022-10-30T00:30:50.340Z,13.90
2022-10-30T00:35:53.552Z,12.65
2022-10-30T00:40:58.038Z,12.60
2022-10-30T00:46:05.825Z,13.83
2022-10-30T00:51:11.598Z,12.52
2022-10-30T00:56:18.575Z,15.57
2022-10-30T01:01:25.877Z,15.40
2022-10-30T01:06:30.193Z,15.40
2022-10-30T01:11:34.885Z,17.33
2022-10-30T01:16:53.733Z,16.23
2022-10-30T01:22:21.946Z,15.35
2022-10-30T01:27:39.255Z,13.45
2022-10-30T01:33:00.091Z,14.60
2022-10-30T01:38:10.639Z,15.13
2022-10-30T01:43:15.917Z,15.00
2022-10-30T01:48:38.045Z,16.35
2022-10-30T01:53:51.883Z,16.67
2022-10-30T01:59:04.391Z,18.42
2022-10-30T02:04:09.056Z,17.10
2022-10-30T02:09:14.746Z,18.83
2022-10-30T02:14:27.985Z,18.83
2022-10-30T02:19:31.427Z,18.45
2022-10-30T02:24:35.880Z,17.90
2022-10-30T02:29:39.062Z,20.00
2022-10-30T02:34:44.090Z,19.98
2022-10-30T02:39:48.799Z,19.38
2022-10-30T02:44:51.853Z,19.80
2022-10-30T02:49:54.903Z,17.95
2022-10-30T02:54:59.293Z,18.40
2022-10-30T03:00:02.588Z,19.20
2022-10-30T03:05:06.719Z,19.48
2022-10-30T03:10:11.377Z,16.75
2022-10-30T03:15:14.693Z,19.07
2022-10-30T03:20:18.472Z,17.42
2022-10-30T03:25:23.968Z,17.63
2022-10-30T03:30:30.860Z,18.13
2022-10-30T03:35:37.633Z,17.80
2022-10-30T03:40:42.214Z,17.85
2022-10-30T03:45:50.315Z,20.30
2022-10-30T03:50:54.655Z,18.95
2022-10-30T03:56:01.402Z,17.63
2022-10-30T04:01:12.999Z,18.10
2022-10-30T04:06:19.510Z,15.77
2022-10-30T04:11:24.449Z,15.45
2022-10-30T04:16:27.799Z,15.73
2022-10-30T04:21:34.571Z,16.92
2022-10-30T04:26:39.191Z,14.82
2022-10-30T04:31:42.526Z,17.75
2022-10-30T04:36:46.089Z,17.17
2022-10-30T04:41:50.829Z,16.02
2022-10-30T04:47:00.731Z,17.23
2022-10-30T04:52:04.228Z,13.85
2022-10-30T04:57:09.386Z,17.98
2022-10-30T05:02:12.957Z,17.10
2022-10-30T05:07:18.263Z,15.43
2022-10-30T05:12:23.418Z,16.15
2022-10-30T05:22:38.297Z,15.45
2022-10-30T05:27:42.960Z,17.58
2022-10-30T05:32:46.222Z,15.70
2022-10-30T05:37:49.566Z,16.17
2022-10-30T05:42:55.403Z,16.08
2022-10-30T05:48:02.557Z,16.33
2022-10-30T05:53:09.875Z,14.80
2022-10-30T05:58:16.645Z,14.85
2022-10-30T07:57:10.664Z,12.73
2022-10-30T08:02:55.931Z,12.40
2022-10-30T08:08:06.318Z,12.23
2022-10-30T08:13:10.849Z,10.85
2022-10-30T08:23:19.894Z,9.95
2022-10-30T08:28:28.333Z,10.05
2022-10-30T08:33:35.394Z,11.50
2022-10-30T08:38:58.485Z,12.32
2022-10-30T08:44:22.574Z,9.83
2022-10-30T08:49:48.512Z,9.73
2022-10-30T08:54:55.556Z,9.52
2022-10-30T09:00:02.452Z,6.65
2022-10-30T09:05:26.130Z,6.15
2022-10-30T09:10:47.649Z,5.88
2022-10-30T09:23:07.442Z,5.43
2022-10-30T09:33:42.656Z,4.63
2022-10-30T09:39:17.848Z,5.38
2022-10-30T09:44:33.804Z,5.35
2022-10-30T09:49:55.458Z,6.10
2022-10-30T09:55:22.427Z,5.75
2022-10-30T10:00:31.681Z,5.82
2022-10-30T10:05:46.904Z,5.35
2022-10-30T10:11:26.649Z,5.50
2022-10-30T10:16:33.635Z,5.55
2022-10-30T10:21:43.248Z,5.65
2022-10-30T10:26:50.850Z,5.65
2022-10-30T10:32:05.997Z,4.60
2022-10-30T10:37:17.076Z,4.35
2022-10-30T10:42:32.373Z,5.18
2022-10-30T10:48:08.069Z,4.60
2022-10-30T10:53:18.652Z,4.90
2022-10-30T10:58:31.141Z,4.55
2022-10-30T11:03:45.454Z,5.03
2022-10-30T11:08:50.416Z,4.93
2022-10-30T11:13:55.734Z,4.65
2022-10-30T11:19:02.108Z,5.07
2022-10-30T11:24:26.787Z,4.32
2022-10-30T11:29:31.636Z,4.22
2022-10-30T11:34:36.509Z,4.45
2022-10-30T11:44:48.330Z,4.25
2022-10-30T11:49:53.860Z,3.65
2022-10-30T11:55:00.923Z,3.75
2022-10-30T12:00:14.268Z,4.07
2022-10-30T12:05:34.757Z,4.20
2022-10-30T12:10:44.177Z,4.18
2022-10-30T12:15:51.420Z,3.92
2022-10-30T12:20:57.054Z,4.95
2022-10-30T12:26:02.476Z,4.05
2022-10-30T12:31:15.026Z,3.60
2022-10-30T12:43:41.697Z,3.60
2022-10-30T12:48:51.480Z,3.70
2022-10-30T12:54:00.676Z,3.67
2022-10-30T12:59:26.072Z,4.20
2022-10-30T13:04:36.543Z,3.92
2022-10-30T13:09:44.845Z,3.72
2022-10-30T13:14:54.387Z,4.00
2022-10-30T13:19:59.952Z,4.68
2022-10-30T13:25:14.255Z,3.72
2022-10-30T13:30:19.957Z,3.60
2022-10-30T13:35:33.203Z,4.07
2022-10-30T13:40:42.320Z,4.30
2022-10-30T14:29:45.711Z,4.20
2022-10-30T14:34:58.700Z,3.40
2022-10-30T14:40:36.775Z,4.10
2022-10-30T14:45:49.565Z,4.53
2022-10-30T14:51:01.553Z,4.15
2022-10-30T14:56:11.859Z,4.32
2022-10-30T15:01:25.799Z,3.78
2022-10-30T15:06:35.642Z,4.15
2022-10-30T15:11:56.310Z,4.38
2022-10-30T15:17:01.637Z,4.93
2022-10-30T15:27:16.900Z,4.53
2022-10-30T15:32:23.193Z,4.55
2022-10-30T15:37:26.999Z,4.60
2022-10-30T15:42:30.307Z,6.07
2022-10-30T15:47:35.116Z,4.57
2022-10-30T15:52:42.359Z,6.50
2022-10-30T15:58:02.826Z,6.70
2022-10-30T16:03:16.538Z,6.13
2022-10-30T16:08:21.409Z,5.40
2022-10-30T16:13:30.447Z,6.65
2022-10-30T16:18:36.812Z,6.63
2022-10-30T16:23:42.585Z,6.25
2022-10-30T16:28:47.846Z,6.18
2022-10-30T16:33:53.395Z,5.78
2022-10-30T16:38:57.787Z,6.68
2022-10-30T16:44:17.501Z,7.77
2022-10-30T16:49:26.728Z,7.28
2022-10-30T16:54:33.380Z,5.82
2022-10-30T16:59:49.696Z,6.47
2022-10-30T17:05:08.816Z,7.40
2022-10-30T17:10:35.217Z,6.60
2022-10-30T17:15:40.586Z,6.45
2022-10-30T17:20:46.771Z,6.35
2022-10-30T17:25:51.033Z,7.22
2022-10-30T17:30:55.153Z,6.53
2022-10-30T17:36:00.917Z,7.18
2022-10-30T17:41:05.656Z,5.93
2022-10-30T17:46:09.944Z,9.02
2022-10-30T17:51:16.609Z,7.97
2022-10-30T17:56:30.527Z,9.35
2022-10-30T18:01:34.701Z,8.68
2022-10-30T18:06:40.715Z,9.93
2022-10-30T18:11:44.514Z,9.98
2022-10-30T18:16:54.521Z,9.70
2022-10-30T18:22:01.641Z,9.32
2022-10-30T18:27:05.189Z,9.38
2022-10-30T18:32:10.039Z,8.52
2022-10-30T18:37:15.356Z,8.43
2022-10-30T18:42:19.288Z,7.82
2022-10-30T18:47:23.987Z,9.85
2022-10-30T18:52:28.976Z,8.82
2022-10-30T18:57:32.164Z,8.20
2022-10-30T19:02:35.492Z,9.50
2022-10-30T19:07:39.955Z,6.75
2022-10-30T19:13:04.210Z,7.33
2022-10-30T19:18:07.193Z,7.70
2022-10-30T19:23:15.146Z,6.15
2022-10-30T19:28:20.326Z,6.05
2022-10-30T19:33:24.930Z,7.07
2022-10-30T19:38:30.806Z,7.70
2022-10-30T19:43:34.553Z,5.90
2022-10-30T19:48:56.608Z,6.88
2022-10-30T19:54:02.000Z,6.75
2022-10-30T19:59:09.680Z,6.27
2022-10-30T20:04:13.145Z,7.75
2022-10-30T20:09:17.764Z,9.45
2022-10-30T20:14:20.856Z,9.40
2022-10-30T20:19:28.286Z,9.43
2022-10-30T20:24:32.876Z,9.63
2022-10-30T20:29:36.891Z,9.37
2022-10-30T20:34:40.090Z,10.40
2022-10-30T20:39:44.545Z,8.57
2022-10-30T20:44:48.074Z,8.15
2022-10-30T20:49:51.515Z,7.82
2022-10-30T20:54:56.078Z,9.25
2022-10-30T20:59:59.267Z,9.47
2022-10-30T21:05:12.172Z,9.20
2022-10-30T21:10:30.478Z,8.77
2022-10-30T21:15:33.894Z,8.45
2022-10-30T21:20:37.551Z,11.27
2022-10-30T21:25:42.026Z,9.57
2022-10-30T21:30:45.433Z,10.80
2022-10-30T21:35:48.675Z,8.90
2022-10-30T21:40:56.727Z,11.18
2022-10-30T21:46:03.948Z,12.40
2022-10-30T21:51:09.827Z,10.77
2022-10-30T21:56:16.557Z,11.95
2022-10-30T22:01:22.137Z,12.88
2022-10-30T22:06:26.549Z,14.02
2022-10-30T22:11:31.555Z,13.85
2022-10-30T22:16:36.266Z,12.90
2022-10-30T22:21:39.498Z,14.77
2022-10-30T22:26:44.297Z,15.05
2022-10-30T22:31:47.551Z,15.00
2022-10-30T22:36:51.127Z,14.63
2022-10-30T22:41:55.806Z,14.82
2022-10-30T22:46:59.359Z,14.75
2022-10-30T22:52:02.524Z,16.02
2022-10-30T22:57:06.953Z,16.15
2022-10-30T23:02:10.302Z,13.53
2022-10-30T23:07:14.143Z,13.45
2022-10-30T23:12:18.683Z,15.13
2022-10-30T23:17:21.753Z,15.33
2022-10-30T23:22:25.069Z,13.68
2022-10-30T23:27:28.556Z,17.00
2022-10-30T23:32:32.101Z,16.65
2022-10-30T23:37:35.473Z,16.73
2022-10-30T23:42:40.511Z,17.90
2022-10-30T23:47:43.658Z,16.63
2022-10-30T23:52:46.888Z,16.55
2022-10-30T23:57:51.385Z,17.40
